Terminal Aerodrome Forecast
Issued by NWS Brownsville, TX

Home | Current Version | Previous Version | Text Only | Print | Product List | Glossary On
Versions: 1 2 3 4 5 6 7 8 9 10 11 12 13 14 15 16
000
FTUS44 KBRO 301100
TAFMFE
TAF
KMFE 301127Z 3012/3112 13005KT P6SM SKC
     FM301400 16012G18KT P6SM SCT035
     FM301800 15015G21KT P6SM FEW060
     FM302100 14018G25KT P6SM FEW070
     FM310300 14008KT P6SM SKC=

USA.gov is the U.S. government's official web portal to all federal, state and local government web resources and services.